Time;durP1;ratioP1;P1;durP2;ratioP2;P2;SDS_P1;SDS_P2;PMS_P1;PMS_P2;Temp;Humidity;BMP_temperature;BMP_pressure;BME280_temperature;BME280_humidity;BME280_pressure;Samples;Min_cycle;Max_cycle;Signal;HPM_P1;HPM_P2
2021/03/09 00:00:26;;;;;;;1.27;0.90;;;-5.90;84.50;;;;;;4353402;32;20069;-58
2021/03/09 00:02:53;;;;;;;0.98;0.73;;;-5.80;86.10;;;;;;4364581;32;20149;-58
2021/03/09 00:05:19;;;;;;;0.60;0.60;;;-5.80;86.80;;;;;;4365063;32;20141;-57
2021/03/09 00:07:45;;;;;;;1.17;0.60;;;-5.80;84.90;;;;;;4377502;32;20069;-58
2021/03/09 00:10:12;;;;;;;1.15;0.57;;;-5.70;84.40;;;;;;4393491;32;20098;-56
2021/03/09 00:12:38;;;;;;;0.95;0.85;;;-5.70;84.10;;;;;;4356176;32;20092;-58
2021/03/09 00:15:06;;;;;;;1.00;0.90;;;-5.80;85.70;;;;;;4377488;32;20069;-58
2021/03/09 00:17:32;;;;;;;2.15;0.93;;;-6.00;87.50;;;;;;4377293;32;20443;-58
2021/03/09 00:19:59;;;;;;;1.40;0.93;;;-6.00;88.30;;;;;;4391475;32;20062;-59
2021/03/09 00:22:25;;;;;;;1.08;0.80;;;-6.00;88.70;;;;;;4370875;32;20153;-58
2021/03/09 00:24:51;;;;;;;0.80;0.80;;;-5.90;87.40;;;;;;4390649;32;20185;-57
2021/03/09 00:27:18;;;;;;;1.67;1.08;;;-5.90;87.50;;;;;;4391543;32;20525;-58
2021/03/09 00:29:44;;;;;;;0.85;0.85;;;-5.90;87.90;;;;;;4389922;32;20074;-59
2021/03/09 00:32:10;;;;;;;1.65;0.90;;;-5.90;90.30;;;;;;4389309;32;20073;-58
2021/03/09 00:34:37;;;;;;;1.73;0.93;;;-5.80;86.70;;;;;;4377362;32;20074;-58
2021/03/09 00:37:04;;;;;;;1.65;0.80;;;-5.90;87.50;;;;;;4367294;32;20095;-58
2021/03/09 00:39:30;;;;;;;1.75;0.90;;;-5.90;89.40;;;;;;4392672;32;20170;-57
2021/03/09 00:41:56;;;;;;;1.58;0.90;;;-6.10;88.50;;;;;;4405008;32;20540;-58
2021/03/09 00:44:23;;;;;;;1.80;0.95;;;-6.00;88.20;;;;;;4366994;32;20078;-58
2021/03/09 00:46:50;;;;;;;1.58;0.73;;;-6.00;89.00;;;;;;4406351;32;20151;-58
2021/03/09 00:49:17;;;;;;;1.48;0.93;;;-6.00;87.20;;;;;;4368738;32;20100;-58
2021/03/09 00:51:43;;;;;;;1.48;0.77;;;-6.10;86.30;;;;;;4393127;32;20162;-58
2021/03/09 00:54:09;;;;;;;0.95;0.88;;;-6.20;87.00;;;;;;4368770;32;20089;-58
2021/03/09 00:56:36;;;;;;;1.42;0.93;;;-6.20;86.40;;;;;;4343850;32;20081;-57
2021/03/09 00:59:02;;;;;;;1.00;0.90;;;-6.30;89.10;;;;;;4392887;32;20580;-58
2021/03/09 01:01:29;;;;;;;1.17;0.85;;;-6.30;88.00;;;;;;4394114;32;20081;-58
2021/03/09 01:03:55;;;;;;;1.30;1.00;;;-6.40;88.00;;;;;;4366849;32;20190;-57
2021/03/09 01:06:21;;;;;;;2.17;1.02;;;-6.30;86.00;;;;;;4367011;32;20509;-58
2021/03/09 01:08:48;;;;;;;1.60;0.77;;;-6.30;86.30;;;;;;4393932;32;20421;-59
2021/03/09 01:11:14;;;;;;;1.15;0.77;;;-6.30;87.00;;;;;;4379721;32;20077;-58
2021/03/09 01:13:40;;;;;;;0.82;0.82;;;-6.30;86.10;;;;;;4392526;32;20596;-58
2021/03/09 01:16:06;;;;;;;2.03;1.12;;;-6.30;86.50;;;;;;4393665;32;20589;-57
2021/03/09 01:18:32;;;;;;;1.30;0.77;;;-6.50;89.70;;;;;;4393573;32;20132;-60
2021/03/09 01:20:59;;;;;;;2.12;0.75;;;-6.40;86.90;;;;;;4380238;32;20646;-58
2021/03/09 01:23:25;;;;;;;1.00;0.80;;;-6.40;87.60;;;;;;4393657;32;20089;-57
2021/03/09 01:25:51;;;;;;;2.85;1.17;;;-6.30;86.80;;;;;;4367164;32;20058;-57
2021/03/09 01:28:18;;;;;;;1.23;1.00;;;-6.40;86.50;;;;;;4355221;32;20138;-57
2021/03/09 01:30:44;;;;;;;2.67;1.20;;;-6.30;87.40;;;;;;4379680;32;20089;-58
2021/03/09 01:33:11;;;;;;;1.27;0.80;;;-6.40;85.90;;;;;;4373190;32;20141;-57
2021/03/09 01:35:38;;;;;;;1.20;1.10;;;-6.50;88.00;;;;;;4367194;32;20495;-58
2021/03/09 01:38:05;;;;;;;1.10;0.98;;;-6.60;89.90;;;;;;4354963;32;20068;-58
2021/03/09 01:40:31;;;;;;;1.40;1.10;;;-6.70;90.00;;;;;;4367666;32;20152;-58
2021/03/09 01:42:57;;;;;;;1.50;0.98;;;-6.80;90.20;;;;;;4380205;32;20148;-58
2021/03/09 01:45:24;;;;;;;1.12;0.85;;;-6.70;90.00;;;;;;4393237;32;20069;-58
2021/03/09 01:47:50;;;;;;;2.03;1.20;;;-6.70;90.00;;;;;;4391259;32;20219;-58
2021/03/09 01:50:18;;;;;;;2.10;1.23;;;-6.50;87.50;;;;;;4377096;32;20153;-58
2021/03/09 01:52:46;;;;;;;1.10;1.00;;;-6.60;88.10;;;;;;4377223;32;20082;-57
2021/03/09 01:55:13;;;;;;;1.25;1.02;;;-6.50;88.30;;;;;;4366631;32;21521;-59
2021/03/09 01:57:41;;;;;;;1.15;0.82;;;-6.60;86.40;;;;;;4382881;32;20066;-58
2021/03/09 02:00:08;;;;;;;2.92;1.55;;;-6.70;88.00;;;;;;4373283;32;20161;-58
2021/03/09 02:02:34;;;;;;;3.10;1.75;;;-6.70;88.00;;;;;;4378763;32;20157;-58
2021/03/09 02:05:05;;;;;;;2.33;1.40;;;-6.80;90.30;;;;;;4379920;32;20093;-58
2021/03/09 02:07:32;;;;;;;3.47;1.50;;;-6.70;90.60;;;;;;4367813;32;20492;-58
2021/03/09 02:09:58;;;;;;;2.40;1.30;;;-6.80;90.90;;;;;;4392582;32;20073;-58
2021/03/09 02:13:01;;;;;;;2.12;1.40;;;-6.80;90.10;;;;;;4354409;32;20102;-58
2021/03/09 02:16:06;;;;;;;2.50;1.40;;;-6.80;90.30;;;;;;4382800;32;20078;-58
2021/03/09 02:19:15;;;;;;;2.25;1.42;;;-6.90;91.00;;;;;;4372962;32;20067;-58
2021/03/09 02:22:33;;;;;;;1.87;1.23;;;-6.90;90.10;;;;;;4381536;32;20444;-58
2021/03/09 02:25:54;;;;;;;2.07;1.70;;;-6.90;90.30;;;;;;4360846;32;20089;-58
2021/03/09 02:29:20;;;;;;;2.12;1.15;;;-6.80;90.10;;;;;;4365333;32;20085;-57
2021/03/09 02:31:50;;;;;;;1.98;1.60;;;-6.80;89.60;;;;;;4370360;32;20101;-58
2021/03/09 02:34:26;;;;;;;1.85;1.45;;;-6.80;90.00;;;;;;4375626;32;20077;-57
2021/03/09 02:36:52;;;;;;;1.85;1.50;;;-6.90;90.60;;;;;;4383152;32;20526;-57
2021/03/09 02:39:19;;;;;;;2.00;1.35;;;-6.80;91.10;;;;;;4381052;32;20061;-58
2021/03/09 02:41:47;;;;;;;2.45;1.30;;;-6.90;91.10;;;;;;4368644;32;20459;-58
2021/03/09 02:44:21;;;;;;;2.22;1.70;;;-7.00;91.30;;;;;;4393813;32;20061;-59
2021/03/09 02:46:48;;;;;;;1.35;1.12;;;-7.10;91.80;;;;;;4369070;32;20146;-58
2021/03/09 02:49:15;;;;;;;1.77;1.30;;;-7.00;92.00;;;;;;4384882;32;20074;-58
2021/03/09 02:51:43;;;;;;;2.30;1.42;;;-6.90;90.80;;;;;;4378463;32;20460;-57
2021/03/09 02:54:10;;;;;;;2.58;1.50;;;-6.90;91.20;;;;;;4366466;32;20065;-59
2021/03/09 02:56:40;;;;;;;3.05;1.58;;;-7.10;91.30;;;;;;4378141;32;20078;-58
2021/03/09 02:59:14;;;;;;;2.42;1.70;;;-7.10;90.80;;;;;;4365871;32;20205;-58
2021/03/09 03:01:43;;;;;;;2.67;1.75;;;-7.00;90.90;;;;;;4354497;32;20242;-57
2021/03/09 03:04:17;;;;;;;2.45;1.65;;;-7.00;90.40;;;;;;4366481;32;20189;-58
2021/03/09 03:06:48;;;;;;;3.95;2.08;;;-6.90;90.30;;;;;;4367007;32;20504;-59
2021/03/09 03:09:18;;;;;;;3.03;1.70;;;-7.10;90.90;;;;;;4353254;32;20081;-58
2021/03/09 03:11:45;;;;;;;1.85;1.17;;;-7.10;90.50;;;;;;4365449;32;20525;-58
2021/03/09 03:14:12;;;;;;;2.78;1.75;;;-7.00;90.10;;;;;;4378727;32;20066;-58
2021/03/09 03:16:39;;;;;;;2.58;1.55;;;-7.00;90.20;;;;;;4378112;32;20182;-57
2021/03/09 03:19:06;;;;;;;1.85;1.40;;;-6.90;90.10;;;;;;4365718;32;20512;-58
2021/03/09 03:21:36;;;;;;;2.33;1.62;;;-6.90;89.10;;;;;;4364484;32;20070;-59
2021/03/09 03:24:05;;;;;;;3.10;1.65;;;-6.90;89.40;;;;;;4351048;32;20059;-58
2021/03/09 03:26:42;;;;;;;3.20;1.50;;;-6.90;89.50;;;;;;4364561;32;20065;-58
2021/03/09 03:29:09;;;;;;;2.47;1.67;;;-6.90;90.10;;;;;;4378788;32;20066;-59
2021/03/09 03:31:35;;;;;;;2.60;1.58;;;-6.90;90.00;;;;;;4390498;32;20070;-58
2021/03/09 03:34:06;;;;;;;2.08;1.42;;;-6.80;89.70;;;;;;4377016;32;20066;-58
2021/03/09 03:36:36;;;;;;;2.75;1.80;;;-6.80;88.80;;;;;;4366597;32;20074;-58
2021/03/09 03:39:04;;;;;;;5.60;1.90;;;-6.80;88.50;;;;;;4354017;32;20069;-58
2021/03/09 03:41:30;;;;;;;2.15;1.58;;;-6.70;89.00;;;;;;4377878;32;20058;-58
2021/03/09 03:43:57;;;;;;;3.47;2.10;;;-6.80;89.50;;;;;;4377710;32;20601;-59
2021/03/09 03:46:23;;;;;;;3.62;2.17;;;-6.80;89.00;;;;;;4380414;32;20054;-62
2021/03/09 03:48:49;;;;;;;4.53;2.40;;;-6.80;89.70;;;;;;4382623;32;20157;-58
2021/03/09 03:51:16;;;;;;;3.83;1.98;;;-6.70;90.00;;;;;;4377472;32;20070;-58
2021/03/09 03:53:59;;;;;;;5.05;2.25;;;-6.70;89.80;;;;;;4352793;32;20141;-58
2021/03/09 03:56:53;;;;;;;5.18;2.53;;;-6.80;90.00;;;;;;4385577;32;20070;-58
2021/03/09 03:59:30;;;;;;;5.35;2.80;;;-6.90;90.50;;;;;;4373415;32;20088;-58
2021/03/09 04:01:56;;;;;;;5.95;2.85;;;-6.80;90.60;;;;;;4350673;32;20522;-59
2021/03/09 04:04:25;;;;;;;5.35;2.90;;;-6.70;90.50;;;;;;4376487;32;20089;-58
2021/03/09 04:06:54;;;;;;;7.72;3.15;;;-6.60;90.30;;;;;;4365626;32;20591;-58
2021/03/09 04:09:21;;;;;;;6.05;3.25;;;-6.50;90.00;;;;;;4364979;32;20085;-58
2021/03/09 04:11:48;;;;;;;7.00;3.35;;;-6.40;89.40;;;;;;4377712;32;20202;-58
2021/03/09 04:14:17;;;;;;;6.37;3.30;;;-6.40;88.90;;;;;;4340464;32;20078;-58
2021/03/09 04:16:47;;;;;;;9.02;4.07;;;-6.40;90.20;;;;;;4340677;32;20070;-57
2021/03/09 04:19:14;;;;;;;8.77;4.03;;;-6.40;90.10;;;;;;4365180;32;20069;-59
2021/03/09 04:21:41;;;;;;;5.65;3.25;;;-6.40;89.50;;;;;;4352822;32;20065;-59
2021/03/09 04:24:09;;;;;;;6.97;3.62;;;-6.30;89.90;;;;;;4377263;32;20147;-58
2021/03/09 04:26:36;;;;;;;7.45;3.50;;;-6.20;89.80;;;;;;4365460;32;20069;-59
2021/03/09 04:29:02;;;;;;;6.25;3.47;;;-6.10;87.70;;;;;;4364858;32;20075;-58
2021/03/09 04:31:29;;;;;;;6.35;3.60;;;-6.00;89.80;;;;;;4352281;32;20077;-57
2021/03/09 04:33:55;;;;;;;6.55;3.37;;;-6.00;90.20;;;;;;4373876;32;20063;-59
2021/03/09 04:36:21;;;;;;;4.68;3.00;;;-6.00;89.50;;;;;;4368212;32;20151;-58
2021/03/09 04:38:48;;;;;;;5.43;3.20;;;-6.00;87.20;;;;;;4368500;32;20050;-58
2021/03/09 04:41:16;;;;;;;5.15;3.03;;;-6.00;88.40;;;;;;4350868;32;20173;-59
2021/03/09 04:43:42;;;;;;;13.90;8.80;;;-5.90;87.00;;;;;;4363128;32;20077;-58
2021/03/09 04:46:09;;;;;;;4.37;2.87;;;-5.90;86.70;;;;;;4362089;32;20444;-57
2021/03/09 04:48:39;;;;;;;6.30;3.20;;;-5.90;86.20;;;;;;4359041;32;20070;-58
2021/03/09 04:51:09;;;;;;;5.65;3.62;;;-5.80;86.20;;;;;;4365246;32;20086;-58
2021/03/09 04:53:35;;;;;;;5.10;3.12;;;-5.90;86.30;;;;;;4390053;32;20078;-58
2021/03/09 04:56:01;;;;;;;7.35;3.78;;;-5.90;86.30;;;;;;4352722;32;20196;-58
2021/03/09 04:58:28;;;;;;;5.65;2.87;;;-5.90;87.10;;;;;;4377698;32;20094;-60
2021/03/09 05:00:54;;;;;;;4.47;2.78;;;-5.90;85.70;;;;;;4375523;32;20103;-59
2021/03/09 05:03:21;;;;;;;4.03;2.58;;;-6.00;85.50;;;;;;4373673;32;20066;-59
2021/03/09 05:05:47;;;;;;;4.87;2.75;;;-6.10;85.40;;;;;;4389901;32;20141;-59
2021/03/09 05:08:13;;;;;;;5.37;3.12;;;-5.90;86.80;;;;;;4380928;32;20081;-60
2021/03/09 05:10:39;;;;;;;4.30;2.62;;;-5.80;86.00;;;;;;4390470;32;20065;-60
2021/03/09 05:13:06;;;;;;;5.25;2.62;;;-5.70;85.30;;;;;;4375338;32;20070;-60
2021/03/09 05:15:32;;;;;;;4.28;2.45;;;-5.80;85.30;;;;;;4369788;32;20064;-61
2021/03/09 05:17:59;;;;;;;4.32;2.47;;;-5.60;85.20;;;;;;4379856;32;20078;-59
2021/03/09 05:20:25;;;;;;;2.30;2.08;;;-5.20;83.70;;;;;;4374314;32;20167;-60
2021/03/09 05:22:52;;;;;;;4.25;2.10;;;-1.90;75.30;;;;;;4374900;32;20070;-59
2021/03/09 05:25:18;;;;;;;2.95;2.17;;;0.20;63.30;;;;;;4391094;32;20073;-60
2021/03/09 05:27:47;;;;;;;3.45;2.22;;;1.20;57.60;;;;;;4364484;32;20161;-60
2021/03/09 05:30:15;;;;;;;3.75;1.98;;;0.90;54.60;;;;;;4371958;32;20077;-59
2021/03/09 05:32:42;;;;;;;3.12;1.87;;;1.90;54.70;;;;;;4377302;32;20074;-59
2021/03/09 05:35:09;;;;;;;3.97;2.30;;;2.10;57.10;;;;;;4386278;32;20429;-59
2021/03/09 05:37:36;;;;;;;2.62;1.77;;;3.20;50.40;;;;;;4382570;32;20077;-58
2021/03/09 05:40:04;;;;;;;2.75;1.90;;;3.70;47.30;;;;;;4354329;32;20504;-59
2021/03/09 05:42:30;;;;;;;2.58;1.83;;;3.10;49.60;;;;;;4366477;32;20062;-59
2021/03/09 05:44:57;;;;;;;3.47;2.00;;;3.90;48.90;;;;;;4359003;32;20479;-59
2021/03/09 05:47:24;;;;;;;2.62;1.60;;;3.70;47.30;;;;;;4377346;32;20171;-59
2021/03/09 05:49:50;;;;;;;3.37;2.00;;;3.20;48.00;;;;;;4364215;32;20066;-59
2021/03/09 05:52:17;;;;;;;4.15;2.05;;;4.30;53.20;;;;;;4366675;32;20090;-59
2021/03/09 05:54:44;;;;;;;3.47;1.77;;;4.50;49.00;;;;;;4379652;32;20065;-58
2021/03/09 05:57:11;;;;;;;1.98;1.67;;;4.90;50.90;;;;;;4343079;32;20077;-59
2021/03/09 05:59:37;;;;;;;4.15;2.17;;;3.80;49.70;;;;;;4351578;32;20127;-60
2021/03/09 06:02:04;;;;;;;4.62;2.17;;;2.60;51.20;;;;;;4352466;32;20077;-58
2021/03/09 06:04:39;;;;;;;4.45;2.50;;;3.50;56.50;;;;;;4360512;32;20143;-58
2021/03/09 06:07:06;;;;;;;3.60;2.10;;;4.40;51.90;;;;;;4363316;32;20089;-61
2021/03/09 06:09:40;;;;;;;4.78;2.20;;;4.40;52.10;;;;;;4390958;32;20084;-59
2021/03/09 06:12:13;;;;;;;9.65;3.12;;;4.50;51.10;;;;;;4391293;32;20103;-59
2021/03/09 06:15:00;;;;;;;7.15;2.90;;;3.50;51.50;;;;;;4380097;32;20594;-59
2021/03/09 06:17:38;;;;;;;6.32;3.22;;;3.20;53.40;;;;;;4389443;32;20089;-59
2021/03/09 06:20:18;;;;;;;4.95;2.37;;;1.40;57.00;;;;;;4387468;32;20208;-59
2021/03/09 06:22:52;;;;;;;5.97;2.30;;;-0.50;67.40;;;;;;4368515;32;20090;-59
2021/03/09 06:25:21;;;;;;;6.53;2.83;;;-1.40;69.30;;;;;;4378420;32;20100;-60
2021/03/09 06:27:48;;;;;;;4.53;2.60;;;-1.70;73.40;;;;;;4388708;32;20070;-59
2021/03/09 06:30:36;;;;;;;6.40;3.03;;;-1.80;73.50;;;;;;4374946;32;20061;-58
2021/03/09 06:33:03;;;;;;;4.90;2.60;;;-2.20;68.50;;;;;;4365054;32;20483;-60
2021/03/09 06:35:41;;;;;;;4.57;2.33;;;-2.10;70.50;;;;;;4377157;32;20112;-58
2021/03/09 06:38:27;;;;;;;5.45;2.75;;;-2.00;68.90;;;;;;4353434;32;20094;-60
2021/03/09 06:41:19;;;;;;;6.05;2.80;;;-1.90;68.10;;;;;;4383532;32;20073;-59
2021/03/09 06:43:59;;;;;;;5.05;2.78;;;-1.70;68.20;;;;;;4382752;32;20209;-60
2021/03/09 06:46:25;;;;;;;6.37;3.50;;;-1.80;68.40;;;;;;4355108;32;20424;-59
2021/03/09 06:49:10;;;;;;;7.50;3.35;;;-1.50;67.70;;;;;;4373958;32;20069;-58
2021/03/09 06:51:37;;;;;;;8.43;3.92;;;-1.30;66.50;;;;;;4365372;32;20082;-58
2021/03/09 06:54:07;;;;;;;9.80;4.00;;;-1.30;64.40;;;;;;4365196;32;20050;-58
2021/03/09 06:56:39;;;;;;;7.87;3.35;;;-1.20;65.80;;;;;;4370257;32;20144;-59
2021/03/09 06:59:28;;;;;;;6.18;3.53;;;-1.30;63.90;;;;;;4379374;32;20074;-60
2021/03/09 07:02:18;;;;;;;7.07;3.05;;;-1.30;63.60;;;;;;4377217;32;20058;-57
2021/03/09 07:04:52;;;;;;;5.60;2.90;;;-1.20;65.30;;;;;;4386774;32;20179;-60
2021/03/09 07:07:29;;;;;;;6.75;3.20;;;-1.00;63.70;;;;;;4352804;32;20082;-59
2021/03/09 07:10:13;;;;;;;7.55;3.40;;;-1.20;61.70;;;;;;4354080;32;20505;-59
2021/03/09 07:12:42;;;;;;;6.40;3.58;;;-1.10;63.70;;;;;;4360016;32;20511;-60
2021/03/09 07:15:10;;;;;;;8.30;3.65;;;-1.10;62.00;;;;;;4362997;32;20511;-58
2021/03/09 07:17:37;;;;;;;4.65;2.58;;;-0.90;62.10;;;;;;4377195;32;20667;-59
2021/03/09 07:20:08;;;;;;;5.18;2.85;;;-0.90;60.60;;;;;;4389469;32;20512;-59
2021/03/09 07:22:36;;;;;;;4.53;2.60;;;-0.90;60.80;;;;;;4378908;32;20600;-58
2021/03/09 07:25:28;;;;;;;6.50;2.90;;;-1.10;60.70;;;;;;4360272;32;20069;-58
2021/03/09 07:28:03;;;;;;;7.68;3.37;;;-0.50;61.70;;;;;;4381956;32;20173;-60
2021/03/09 07:30:33;;;;;;;7.18;3.85;;;-0.70;60.70;;;;;;4375113;32;20070;-58
2021/03/09 07:32:59;;;;;;;12.48;5.50;;;-0.90;60.00;;;;;;4353574;32;20077;-58
2021/03/09 07:35:28;;;;;;;11.68;5.80;;;-0.70;59.50;;;;;;4354650;32;20141;-59
2021/03/09 07:37:54;;;;;;;13.32;5.87;;;-0.70;58.70;;;;;;4345533;32;20150;-58
2021/03/09 07:40:26;;;;;;;12.05;5.60;;;-1.20;60.10;;;;;;4353908;32;20091;-58
2021/03/09 07:42:52;;;;;;;8.88;4.30;;;-0.90;60.20;;;;;;4365967;32;20066;-60
2021/03/09 07:45:22;;;;;;;8.23;3.53;;;-0.60;60.30;;;;;;4379065;32;20054;-59
2021/03/09 07:47:53;;;;;;;6.95;3.80;;;-0.20;57.50;;;;;;4377337;32;20093;-59
2021/03/09 07:50:20;;;;;;;8.55;4.25;;;-0.10;57.10;;;;;;4351080;32;20088;-58
2021/03/09 07:52:59;;;;;;;6.53;3.58;;;-0.10;57.50;;;;;;4358650;32;20155;-58
2021/03/09 07:55:26;;;;;;;5.50;3.00;;;-0.70;58.10;;;;;;4382976;32;20154;-57
2021/03/09 07:58:26;;;;;;;6.25;3.17;;;-0.30;58.10;;;;;;4373906;32;20062;-58
2021/03/09 08:01:11;;;;;;;6.80;3.28;;;-0.10;58.00;;;;;;4360589;32;20146;-57
2021/03/09 08:03:41;;;;;;;7.62;3.85;;;0.40;61.20;;;;;;4360242;32;20081;-58
2021/03/09 08:06:13;;;;;;;6.62;3.80;;;0.60;61.40;;;;;;4376813;32;20105;-57
2021/03/09 08:08:43;;;;;;;7.55;4.05;;;0.60;62.70;;;;;;4362091;32;20073;-59
2021/03/09 08:11:30;;;;;;;6.15;3.28;;;-0.20;57.00;;;;;;4375463;32;20078;-58
2021/03/09 08:14:08;;;;;;;7.85;3.67;;;-2.50;62.80;;;;;;4389701;32;20069;-57
2021/03/09 08:16:42;;;;;;;6.32;2.97;;;-2.70;66.20;;;;;;4388590;32;20078;-57
2021/03/09 08:19:12;;;;;;;7.30;3.55;;;-1.80;63.40;;;;;;4381547;32;20074;-57
2021/03/09 08:21:57;;;;;;;8.25;3.62;;;-1.10;61.00;;;;;;4377783;32;20188;-58
2021/03/09 08:24:42;;;;;;;7.82;3.90;;;-1.40;60.70;;;;;;4375022;32;20546;-59
2021/03/09 08:27:36;;;;;;;7.68;3.87;;;-2.20;63.40;;;;;;4386544;32;20141;-59
2021/03/09 08:30:08;;;;;;;4.00;2.80;;;-2.50;65.60;;;;;;4383630;32;20073;-59
2021/03/09 08:32:35;;;;;;;4.35;2.80;;;-1.60;62.90;;;;;;4373445;32;20078;-62
2021/03/09 08:35:14;;;;;;;5.40;2.80;;;-1.20;60.80;;;;;;4379091;32;20062;-58
2021/03/09 08:37:41;;;;;;;4.35;2.50;;;-2.10;62.20;;;;;;4362354;32;20094;-59
2021/03/09 08:40:12;;;;;;;4.65;2.35;;;-2.10;64.10;;;;;;4356557;32;20113;-61
2021/03/09 08:43:00;;;;;;;3.25;1.92;;;-2.80;64.70;;;;;;4346011;32;20433;-58
2021/03/09 08:45:41;;;;;;;3.92;1.75;;;-3.00;68.00;;;;;;4376198;32;20167;-60
2021/03/09 08:48:11;;;;;;;4.72;2.15;;;-2.80;67.20;;;;;;4374952;32;20546;-60
2021/03/09 08:50:44;;;;;;;4.60;2.03;;;-2.90;66.40;;;;;;4349876;32;20436;-61
2021/03/09 08:53:26;;;;;;;3.40;2.15;;;-2.90;67.20;;;;;;4363586;32;20497;-59
2021/03/09 08:56:00;;;;;;;3.03;1.98;;;-2.40;66.50;;;;;;4371700;32;20514;-58
2021/03/09 08:58:27;;;;;;;3.92;1.95;;;-2.30;66.10;;;;;;4361965;32;20077;-59
2021/03/09 09:00:53;;;;;;;2.50;1.75;;;-3.30;65.40;;;;;;4350410;32;20069;-60
2021/03/09 09:03:38;;;;;;;2.90;2.00;;;-3.20;67.40;;;;;;4349652;32;20139;-59
2021/03/09 09:06:05;;;;;;;4.28;2.08;;;-2.40;65.90;;;;;;4369089;32;20195;-59
2021/03/09 09:08:31;;;;;;;2.78;1.98;;;-1.50;63.50;;;;;;4349370;32;20153;-60
2021/03/09 09:10:58;;;;;;;6.68;2.10;;;-2.60;64.40;;;;;;4385043;32;20082;-58
2021/03/09 09:13:37;;;;;;;4.55;2.03;;;-2.90;65.30;;;;;;4375350;32;20093;-59
2021/03/09 09:16:16;;;;;;;2.40;1.80;;;-2.40;64.70;;;;;;4367842;32;20086;-59
2021/03/09 09:18:42;;;;;;;3.30;1.70;;;-2.90;66.20;;;;;;4377366;32;20081;-58
2021/03/09 09:21:09;;;;;;;4.68;1.98;;;-3.00;67.30;;;;;;4374355;32;20477;-59
2021/03/09 09:23:36;;;;;;;2.60;1.70;;;-2.50;66.00;;;;;;4368740;32;20507;-60
2021/03/09 09:26:03;;;;;;;2.80;1.70;;;-1.80;64.60;;;;;;4385947;32;20078;-58
2021/03/09 09:28:38;;;;;;;3.15;2.10;;;-2.00;63.30;;;;;;4384396;32;20089;-58
2021/03/09 09:31:10;;;;;;;4.10;2.22;;;-1.60;62.00;;;;;;4365778;32;20547;-58
2021/03/09 09:33:36;;;;;;;5.22;2.83;;;-1.50;62.30;;;;;;4362371;32;20070;-58
2021/03/09 09:36:03;;;;;;;5.18;2.53;;;-2.30;64.70;;;;;;4372908;32;20535;-57
2021/03/09 09:38:29;;;;;;;3.28;2.50;;;-1.40;63.00;;;;;;4372973;32;20578;-57
2021/03/09 09:40:58;;;;;;;5.75;2.67;;;-1.50;60.90;;;;;;4374506;32;20542;-60
2021/03/09 09:43:29;;;;;;;7.53;3.22;;;-1.20;60.50;;;;;;4378271;32;20592;-58
2021/03/09 09:46:02;;;;;;;9.02;4.75;;;-1.80;61.40;;;;;;4377069;32;20456;-59
2021/03/09 09:48:38;;;;;;;5.93;3.47;;;-1.80;63.40;;;;;;4376807;32;20105;-60
2021/03/09 09:51:12;;;;;;;9.20;3.75;;;-0.70;59.80;;;;;;4389815;32;20108;-61
2021/03/09 09:53:44;;;;;;;6.85;4.15;;;-0.10;55.60;;;;;;4353812;32;20181;-61
2021/03/09 09:56:22;;;;;;;6.68;4.07;;;-0.60;57.60;;;;;;4389611;32;20078;-60
2021/03/09 09:58:57;;;;;;;5.20;3.42;;;-0.60;58.70;;;;;;4390161;32;20171;-60
2021/03/09 10:01:41;;;;;;;4.45;2.80;;;-1.40;59.60;;;;;;4377230;32;20509;-59
2021/03/09 10:04:13;;;;;;;5.12;3.12;;;-0.80;59.20;;;;;;4378586;32;20508;-59
2021/03/09 10:06:47;;;;;;;3.47;2.28;;;-1.90;59.30;;;;;;4379279;32;20086;-59
2021/03/09 10:09:23;;;;;;;4.95;2.50;;;-2.20;62.00;;;;;;4379886;32;20065;-58
2021/03/09 10:12:00;;;;;;;5.03;3.00;;;-1.80;61.60;;;;;;4380326;32;20062;-59
2021/03/09 10:14:36;;;;;;;4.80;2.58;;;-0.70;60.30;;;;;;4378813;32;20073;-58
2021/03/09 10:17:02;;;;;;;4.20;2.90;;;-1.80;61.60;;;;;;4367747;32;20445;-71
2021/03/09 10:19:37;;;;;;;3.80;2.53;;;-1.30;60.70;;;;;;4365638;32;20063;-59
2021/03/09 10:22:03;;;;;;;5.47;3.15;;;-1.30;59.20;;;;;;4391475;32;20066;-58
2021/03/09 10:24:31;;;;;;;7.57;3.17;;;-2.50;64.30;;;;;;4353927;32;20081;-59
2021/03/09 10:27:02;;;;;;;5.20;2.78;;;-1.80;62.20;;;;;;4366776;32;20074;-58
2021/03/09 10:29:31;;;;;;;8.63;5.12;;;-2.30;63.50;;;;;;4375160;32;20059;-58
2021/03/09 10:31:59;;;;;;;4.37;2.90;;;-2.60;66.70;;;;;;4351320;32;20072;-60
2021/03/09 10:34:49;;;;;;;4.62;2.95;;;-2.30;65.50;;;;;;4377361;32;20078;-59
2021/03/09 10:37:17;;;;;;;4.62;2.58;;;-2.60;64.50;;;;;;4394528;32;20080;-58
2021/03/09 10:40:31;;;;;;;4.03;2.90;;;-3.00;67.40;;;;;;4384889;32;20146;-58
2021/03/09 10:42:58;;;;;;;5.03;2.90;;;-2.50;66.80;;;;;;4349546;32;20084;-59
2021/03/09 10:45:29;;;;;;;4.12;2.50;;;-2.80;65.20;;;;;;4377676;32;20617;-62
2021/03/09 10:48:01;;;;;;;5.05;2.50;;;-2.70;66.60;;;;;;4379718;32;20520;-59
2021/03/09 10:50:30;;;;;;;5.12;3.28;;;-2.30;65.70;;;;;;4363357;32;20154;-61
2021/03/09 10:52:57;;;;;;;6.50;2.42;;;-2.60;65.40;;;;;;4377098;32;20112;-59
2021/03/09 10:55:24;;;;;;;6.82;3.10;;;-2.40;66.80;;;;;;4361479;32;20071;-59
2021/03/09 10:57:52;;;;;;;4.15;2.22;;;-3.20;67.10;;;;;;4368961;32;20143;-61
2021/03/09 11:00:19;;;;;;;2.90;1.85;;;-3.00;68.20;;;;;;4366302;32;20073;-60
2021/03/09 11:02:46;;;;;;;6.87;2.50;;;-3.20;68.70;;;;;;4363904;32;20116;-59
2021/03/09 11:05:13;;;;;;;3.33;1.85;;;-3.00;68.00;;;;;;4359497;32;20094;-61
2021/03/09 11:07:39;;;;;;;2.83;2.03;;;-2.30;66.50;;;;;;4388593;32;20081;-57
2021/03/09 11:10:07;;;;;;;3.78;2.22;;;-2.10;65.40;;;;;;4356683;32;20073;-59
2021/03/09 11:12:34;;;;;;;4.57;2.08;;;-2.30;65.30;;;;;;4371825;32;20070;-59
2021/03/09 11:15:00;;;;;;;3.87;2.20;;;-1.70;64.20;;;;;;4374339;32;20488;-58
2021/03/09 11:17:26;;;;;;;3.47;1.80;;;-1.30;60.60;;;;;;4362866;32;20562;-57
2021/03/09 11:19:52;;;;;;;4.15;2.08;;;-1.40;61.60;;;;;;4387559;32;20082;-59
2021/03/09 11:22:18;;;;;;;2.60;2.25;;;-1.20;60.90;;;;;;4374896;32;20066;-59
2021/03/09 11:24:45;;;;;;;4.28;2.90;;;-1.90;63.30;;;;;;4373005;32;20077;-60
2021/03/09 11:27:11;;;;;;;4.35;2.67;;;-1.60;62.30;;;;;;4363149;32;20067;-59
2021/03/09 11:29:38;;;;;;;4.80;2.90;;;-2.40;63.00;;;;;;4377229;32;20101;-57
2021/03/09 11:32:07;;;;;;;4.60;3.00;;;-1.90;64.20;;;;;;4347373;32;20069;-60
2021/03/09 11:34:34;;;;;;;3.08;2.50;;;-2.60;65.40;;;;;;4370074;32;20178;-59
2021/03/09 11:37:01;;;;;;;4.57;1.95;;;-2.50;65.60;;;;;;4350455;32;20074;-60
2021/03/09 11:39:28;;;;;;;3.12;2.03;;;-1.40;61.00;;;;;;4350429;32;20558;-60
2021/03/09 11:41:54;;;;;;;2.72;1.60;;;-1.70;61.40;;;;;;4361405;32;20092;-59
2021/03/09 11:44:21;;;;;;;3.45;1.87;;;-2.00;63.70;;;;;;4383071;32;20047;-59
2021/03/09 11:46:48;;;;;;;3.10;2.20;;;-2.60;65.10;;;;;;4373399;32;20112;-59
2021/03/09 11:49:14;;;;;;;4.15;2.70;;;-2.00;64.40;;;;;;4369249;32;20066;-57
2021/03/09 11:51:41;;;;;;;5.40;2.40;;;-2.50;64.10;;;;;;4358063;32;20072;-57
2021/03/09 11:54:07;;;;;;;1.85;1.48;;;-2.10;65.10;;;;;;4376999;32;20085;-60
2021/03/09 11:56:33;;;;;;;2.00;1.73;;;-2.00;63.60;;;;;;4377495;32;20082;-58
2021/03/09 11:58:59;;;;;;;3.55;2.30;;;-1.50;62.30;;;;;;4382326;32;20073;-59
2021/03/09 12:01:26;;;;;;;4.32;2.87;;;-0.60;62.40;;;;;;4383937;32;20512;-59
2021/03/09 12:03:53;;;;;;;5.97;3.12;;;-1.30;60.70;;;;;;4386743;32;20076;-58
2021/03/09 12:06:20;;;;;;;3.95;2.10;;;-1.80;62.90;;;;;;4372295;32;20061;-58
2021/03/09 12:08:48;;;;;;;3.75;2.30;;;-2.10;63.00;;;;;;4364564;32;20550;-58
2021/03/09 12:11:14;;;;;;;3.90;2.58;;;-2.80;64.60;;;;;;4381919;32;20071;-60
2021/03/09 12:13:43;;;;;;;3.70;2.30;;;-2.70;65.90;;;;;;4383153;32;20066;-62
2021/03/09 12:16:09;;;;;;;3.47;2.42;;;-3.00;66.20;;;;;;4364761;32;20073;-58
2021/03/09 12:18:35;;;;;;;5.68;3.50;;;-2.60;65.60;;;;;;4371956;32;20484;-59
2021/03/09 12:21:02;;;;;;;6.97;4.10;;;-2.90;65.20;;;;;;4374352;32;20089;-58
2021/03/09 12:23:28;;;;;;;6.32;4.00;;;-2.90;64.60;;;;;;4374354;32;20072;-59
2021/03/09 12:25:54;;;;;;;5.32;3.75;;;-2.80;64.40;;;;;;4372442;32;20082;-57
2021/03/09 12:28:21;;;;;;;5.03;2.87;;;-2.50;64.30;;;;;;4381219;32;20494;-59
2021/03/09 12:30:48;;;;;;;5.65;3.35;;;-2.50;63.00;;;;;;4356683;32;20465;-58
2021/03/09 12:33:16;;;;;;;3.85;2.40;;;-2.20;63.10;;;;;;4385095;32;20077;-58
2021/03/09 12:35:42;;;;;;;3.85;2.45;;;-2.60;62.90;;;;;;4374492;32;20093;-59
2021/03/09 12:38:09;;;;;;;3.95;2.70;;;-2.60;63.30;;;;;;4368086;32;20162;-57
2021/03/09 12:40:35;;;;;;;5.72;3.90;;;-2.90;64.60;;;;;;4381588;32;20416;-57
2021/03/09 12:43:02;;;;;;;6.00;3.33;;;-3.00;64.30;;;;;;4364603;32;20492;-57
2021/03/09 12:45:28;;;;;;;6.62;2.78;;;-2.10;62.70;;;;;;4380256;32;20105;-55
2021/03/09 12:47:54;;;;;;;5.55;2.87;;;-2.00;61.80;;;;;;4386902;32;20146;-57
2021/03/09 12:50:20;;;;;;;4.40;2.50;;;-2.20;60.60;;;;;;4389614;32;20113;-57
2021/03/09 12:52:47;;;;;;;3.47;2.45;;;-3.10;62.70;;;;;;4377488;32;20077;-58
2021/03/09 12:55:13;;;;;;;4.53;3.10;;;-2.80;62.80;;;;;;4378328;32;20070;-56
2021/03/09 12:57:40;;;;;;;5.57;2.85;;;-2.70;62.90;;;;;;4383265;32;20160;-57
2021/03/09 13:00:07;;;;;;;4.40;2.53;;;-2.10;62.50;;;;;;4354827;32;20092;-57
2021/03/09 13:02:34;;;;;;;4.50;2.60;;;-2.10;60.70;;;;;;4375792;32;20500;-59
2021/03/09 13:05:01;;;;;;;4.25;2.53;;;-2.40;61.20;;;;;;4353148;32;20074;-57